createdAt,value
2023-02-04T00:00:15.899Z,5
2023-02-04T00:04:19.318Z,5
2023-02-04T00:06:17.982Z,5
2023-02-04T00:10:18.609Z,5
2023-02-04T00:12:20.267Z,5
2023-02-04T00:16:16.305Z,5.1
2023-02-04T00:18:15.902Z,5.1
2023-02-04T00:22:18.049Z,5.1
2023-02-04T00:24:20.985Z,5.1
2023-02-04T00:28:18.089Z,5
2023-02-04T00:30:19.481Z,5
2023-02-04T00:34:16.668Z,5
2023-02-04T00:36:19.575Z,4.9
2023-02-04T00:38:22.495Z,4.9
2023-02-04T00:40:16.161Z,4.9
2023-02-04T00:42:15.784Z,4.9
2023-02-04T00:44:22.408Z,4.8
2023-02-04T00:46:18.976Z,4.8
2023-02-04T00:48:18.038Z,4.9
2023-02-04T00:50:21.871Z,4.8
2023-02-04T00:52:17.738Z,4.8
2023-02-04T00:54:18.073Z,4.9
2023-02-04T00:56:22.511Z,4.7
2023-02-04T00:58:19.039Z,4.6
2023-02-04T01:00:15.972Z,4.7
2023-02-04T01:04:15.801Z,4.5
2023-02-04T01:06:22.969Z,4.7
2023-02-04T01:10:22.472Z,4.7
2023-02-04T01:12:20.992Z,4.6
2023-02-04T01:14:16.306Z,4.6
2023-02-04T01:16:22.134Z,4.6
2023-02-04T01:18:18.728Z,4.6
2023-02-04T01:20:17.696Z,4.7
2023-02-04T01:24:15.945Z,4.5
2023-02-04T01:26:19.416Z,4.4
2023-02-04T01:30:19.092Z,4.6
2023-02-04T01:32:17.101Z,4.6
2023-02-04T01:36:15.940Z,4.6
2023-02-04T01:38:18.153Z,4.8
2023-02-04T01:40:22.443Z,4.6
2023-02-04T01:42:19.514Z,4.6
2023-02-04T01:44:22.676Z,4.5
2023-02-04T01:48:15.976Z,4.6
2023-02-04T01:50:22.703Z,4.5
2023-02-04T01:52:22.427Z,4.5
2023-02-04T01:54:18.348Z,4.4
2023-02-04T01:56:15.979Z,4.5
2023-02-04T02:00:15.958Z,4.4
2023-02-04T02:02:18.468Z,4.5
2023-02-04T02:04:21.266Z,4.4
2023-02-04T02:06:22.632Z,4.4
2023-02-04T02:08:19.097Z,4.4
2023-02-04T02:12:22.010Z,4.2
2023-02-04T02:14:15.975Z,4.2
2023-02-04T02:18:15.894Z,4.3
2023-02-04T02:20:16.739Z,4.3
2023-02-04T02:22:22.704Z,4.2
2023-02-04T02:24:15.922Z,4.2
2023-02-04T02:26:15.946Z,4.2
2023-02-04T02:30:16.130Z,4.2
2023-02-04T02:32:21.660Z,4.1
2023-02-04T02:36:17.068Z,4.1
2023-02-04T02:38:15.945Z,4
2023-02-04T02:42:16.125Z,3.9
2023-02-04T02:44:21.220Z,3.9
2023-02-04T02:48:22.658Z,4
2023-02-04T02:50:15.965Z,4
2023-02-04T02:52:22.533Z,4
2023-02-04T02:54:17.964Z,4
2023-02-04T02:56:19.600Z,4
2023-02-04T03:00:21.131Z,4
2023-02-04T03:02:18.112Z,4
2023-02-04T03:04:22.590Z,4
2023-02-04T03:06:19.365Z,3.9
2023-02-04T03:08:18.816Z,3.9
2023-02-04T03:12:16.051Z,3.8
2023-02-04T03:14:15.921Z,3.8
2023-02-04T03:16:22.423Z,3.9
2023-02-04T03:18:15.919Z,3.9
2023-02-04T03:20:15.937Z,3.8
2023-02-04T03:22:22.142Z,3.7
2023-02-04T03:24:15.933Z,3.8
2023-02-04T03:26:15.766Z,3.7
2023-02-04T03:28:22.292Z,3.6
2023-02-04T03:30:15.953Z,3.6
2023-02-04T03:32:15.779Z,3.6
2023-02-04T03:34:20.852Z,3.5
2023-02-04T03:36:15.950Z,3.6
2023-02-04T03:40:20.834Z,3.4
2023-02-04T03:42:17.144Z,3.4
2023-02-04T03:44:15.794Z,3.5
2023-02-04T03:48:17.152Z,3.4
2023-02-04T03:50:15.793Z,3.3
2023-02-04T03:52:22.668Z,3.3
2023-02-04T03:54:15.816Z,3.3
2023-02-04T03:56:16.233Z,3.4
2023-02-04T03:58:22.344Z,3.6
2023-02-04T04:00:20.834Z,3.6
2023-02-04T04:02:17.764Z,3.5
2023-02-04T04:04:22.505Z,3.5
2023-02-04T04:06:15.973Z,3.4
2023-02-04T04:08:16.158Z,3.3
2023-02-04T04:10:22.483Z,3.4
2023-02-04T04:14:23.020Z,3.3
2023-02-04T04:18:20.274Z,3.3
2023-02-04T04:20:17.157Z,3.5
2023-02-04T04:22:22.492Z,3.5
2023-02-04T04:24:15.955Z,3.6
2023-02-04T04:26:17.981Z,3.6
2023-02-04T04:30:15.957Z,3.7
2023-02-04T04:32:19.464Z,3.6
2023-02-04T04:36:21.118Z,3.7
2023-02-04T04:38:20.789Z,3.7
2023-02-04T04:40:22.247Z,3.7
2023-02-04T04:42:15.832Z,3.6
2023-02-04T04:44:21.183Z,3.6
2023-02-04T04:46:22.545Z,3.6
2023-02-04T04:48:19.750Z,3.5
2023-02-04T04:50:20.033Z,3.6
2023-02-04T04:54:22.111Z,3.6
2023-02-04T04:56:15.795Z,3.5
2023-02-04T05:00:15.797Z,3.5
2023-02-04T05:02:19.507Z,3.6
2023-02-04T05:04:22.489Z,3.6
2023-02-04T05:06:21.966Z,3.6
2023-02-04T05:08:15.796Z,3.5
2023-02-04T05:10:22.482Z,3.5
2023-02-04T05:12:19.349Z,3.4
2023-02-04T05:14:15.802Z,3.4
2023-02-04T05:18:19.079Z,3.4
2023-02-04T05:20:16.232Z,3.4
2023-02-04T05:22:22.596Z,3.4
2023-02-04T05:24:15.784Z,3.3
2023-02-04T05:26:28.462Z,3.4
2023-02-04T05:28:22.586Z,3.4
2023-02-04T05:30:15.989Z,3.4
2023-02-04T05:32:15.780Z,3.4
2023-02-04T05:36:16.332Z,3.4
2023-02-04T05:38:15.774Z,3.4
2023-02-04T05:47:15.990Z,3.1
2023-02-04T05:49:16.004Z,3
2023-02-04T05:51:16.054Z,3
2023-02-04T05:53:15.887Z,2.9
2023-02-04T05:55:20.754Z,2.9
2023-02-04T05:57:15.886Z,3
2023-02-04T05:59:16.024Z,3.1
2023-02-04T06:01:19.622Z,3.1
2023-02-04T06:03:16.057Z,3
2023-02-04T06:05:15.928Z,3
2023-02-04T06:07:20.534Z,3.1
2023-02-04T06:09:16.008Z,3.1
2023-02-04T06:11:21.774Z,3.1
2023-02-04T06:13:16.017Z,3
2023-02-04T06:15:16.013Z,3
2023-02-04T06:17:19.768Z,3
2023-02-04T06:19:15.993Z,3
2023-02-04T06:21:22.363Z,2.9
2023-02-04T06:23:19.123Z,3
2023-02-04T06:25:21.688Z,3
2023-02-04T06:27:17.955Z,3
2023-02-04T06:29:22.173Z,3
2023-02-04T06:31:22.338Z,3
2023-02-04T06:33:18.196Z,3.1
2023-02-04T06:35:15.868Z,3.1
2023-02-04T06:37:22.970Z,3.1
2023-02-04T06:39:16.017Z,3.1
2023-02-04T06:41:21.434Z,3.1
2023-02-04T06:43:17.301Z,3
2023-02-04T06:45:16.024Z,3
2023-02-04T06:47:19.134Z,3.1
2023-02-04T06:49:22.224Z,3
2023-02-04T06:51:16.116Z,3.1
2023-02-04T06:53:17.240Z,3
2023-02-04T06:55:19.490Z,3.1
2023-02-04T06:57:16.003Z,3.1
2023-02-04T06:59:16.079Z,3.1
2023-02-04T07:01:15.906Z,3.2
2023-02-04T07:03:15.880Z,3.2
2023-02-04T07:05:20.109Z,3.2
2023-02-04T07:09:16.012Z,3.1
2023-02-04T07:11:21.325Z,3.1
2023-02-04T07:13:18.078Z,3.2
2023-02-04T07:15:16.015Z,3.2
2023-02-04T07:17:22.183Z,3.2
2023-02-04T07:19:15.949Z,3.2
2023-02-04T07:21:20.083Z,3.2
2023-02-04T07:23:21.776Z,3.3
2023-02-04T07:25:20.750Z,3.3
2023-02-04T07:27:19.556Z,3.3
2023-02-04T07:29:25.541Z,3.3
2023-02-04T07:31:16.077Z,3.3
2023-02-04T07:33:17.699Z,3.2
2023-02-04T07:35:21.756Z,3.3
2023-02-04T07:37:19.620Z,3.3
2023-02-04T07:41:16.053Z,3.4
2023-02-04T07:43:16.013Z,3.4
2023-02-04T07:45:21.682Z,3.4
2023-02-04T07:47:21.857Z,3.4
2023-02-04T07:49:16.021Z,3.4
2023-02-04T07:51:16.007Z,3.4
2023-02-04T07:53:16.026Z,3.4
2023-02-04T07:55:18.011Z,3.4
2023-02-04T07:57:20.402Z,3.4
2023-02-04T07:59:19.549Z,3.5
2023-02-04T08:01:16.069Z,3.6
2023-02-04T08:03:20.105Z,3.6
2023-02-04T08:05:19.529Z,3.6
2023-02-04T08:07:16.013Z,3.7
2023-02-04T08:09:15.939Z,3.7
2023-02-04T08:11:15.953Z,3.7
2023-02-04T08:13:20.477Z,3.8
2023-02-04T08:15:19.396Z,3.8
2023-02-04T08:17:18.084Z,3.9
2023-02-04T08:19:16.007Z,3.9
2023-02-04T08:21:17.127Z,4.1
2023-02-04T08:23:21.357Z,4
2023-02-04T08:25:16.038Z,4
2023-02-04T08:27:17.834Z,4.1
2023-02-04T08:29:20.946Z,4.1
2023-02-04T08:31:16.097Z,4.2
2023-02-04T08:33:16.229Z,4.3
2023-02-04T08:35:16.031Z,4.5
2023-02-04T08:37:15.910Z,4.8
2023-02-04T08:39:16.015Z,4.6
2023-02-04T08:41:19.122Z,4.5
2023-02-04T08:43:21.804Z,4.6
2023-02-04T08:45:19.121Z,4.7
2023-02-04T08:47:15.885Z,4.8
2023-02-04T08:49:15.937Z,4.9
2023-02-04T08:51:21.381Z,5
2023-02-04T08:53:20.163Z,5
2023-02-04T08:55:17.812Z,4.8
2023-02-04T08:57:19.515Z,4.5
2023-02-04T08:59:15.924Z,4.1
2023-02-04T09:01:22.563Z,3.6
2023-02-04T09:03:21.822Z,3.3
2023-02-04T09:05:20.469Z,3.1
2023-02-04T09:07:16.313Z,3.2
2023-02-04T09:09:16.037Z,3.2
2023-02-04T09:11:16.123Z,3.3
2023-02-04T09:13:16.296Z,3.5
2023-02-04T09:15:20.482Z,3.6
2023-02-04T09:17:15.905Z,3.9
2023-02-04T09:19:16.079Z,4.2
2023-02-04T09:21:19.423Z,4.5
2023-02-04T09:23:18.529Z,5.8
2023-02-04T09:25:16.070Z,5.6
2023-02-04T09:27:22.131Z,5.5
2023-02-04T09:29:16.068Z,5.1
2023-02-04T09:31:18.380Z,4.6
2023-02-04T09:33:19.940Z,4.4
2023-02-04T09:35:19.546Z,4.5
2023-02-04T09:37:20.139Z,4.6
2023-02-04T09:39:19.593Z,4.5
2023-02-04T09:41:22.132Z,4.6
2023-02-04T09:43:16.073Z,4.6
2023-02-04T09:45:19.594Z,4.4
2023-02-04T09:47:17.841Z,4.5
2023-02-04T09:49:21.786Z,4.9
2023-02-04T09:51:18.226Z,5
2023-02-04T09:53:22.667Z,5.4
2023-02-04T09:55:16.052Z,5.5
2023-02-04T09:57:16.103Z,5.6
2023-02-04T09:59:16.046Z,6.4
2023-02-04T10:01:16.213Z,6.8
2023-02-04T10:03:16.138Z,5.6
2023-02-04T10:05:16.057Z,4.9
2023-02-04T10:07:16.364Z,4.7
2023-02-04T10:09:18.088Z,4.8
2023-02-04T10:11:15.908Z,4.9
2023-02-04T10:15:20.496Z,4.6
2023-02-04T10:17:16.638Z,4.4
2023-02-04T10:19:21.249Z,4.3
2023-02-04T10:21:16.085Z,4.3
2023-02-04T10:23:18.766Z,4.2
2023-02-04T10:25:16.071Z,4.3
2023-02-04T10:27:20.836Z,4.3
2023-02-04T10:29:21.699Z,4.5
2023-02-04T10:31:19.561Z,4.7
2023-02-04T10:33:21.654Z,4.6
2023-02-04T10:35:16.065Z,4.6
2023-02-04T10:37:16.058Z,4.3
2023-02-04T10:39:16.077Z,3.9
2023-02-04T10:41:16.100Z,4
2023-02-04T10:43:16.070Z,4
2023-02-04T10:45:16.431Z,3.9
2023-02-04T10:47:18.123Z,3.4
2023-02-04T10:49:16.112Z,3.1
2023-02-04T10:51:18.395Z,2.9
2023-02-04T10:53:16.090Z,2.8
2023-02-04T10:55:20.060Z,2.6
2023-02-04T10:57:16.078Z,2.5
2023-02-04T10:59:20.078Z,2.5
2023-02-04T11:01:20.110Z,2.4
2023-02-04T11:03:18.556Z,2.2
2023-02-04T11:05:18.222Z,2.3
2023-02-04T11:07:19.142Z,2.4
2023-02-04T11:09:17.765Z,2.4
2023-02-04T11:11:16.104Z,2.6
2023-02-04T11:13:20.116Z,2.7
2023-02-04T11:15:17.224Z,2.7
2023-02-04T11:17:16.097Z,2.6
2023-02-04T11:19:16.088Z,2.7
2023-02-04T11:21:19.389Z,3.3
2023-02-04T11:23:16.082Z,3.4
2023-02-04T11:25:16.100Z,4
2023-02-04T11:27:19.552Z,6.2
2023-02-04T11:29:16.081Z,6.3
2023-02-04T11:31:16.228Z,6.4
2023-02-04T11:33:16.079Z,6.6
2023-02-04T11:35:16.270Z,6.5
2023-02-04T11:37:16.087Z,6.5
2023-02-04T11:39:16.108Z,6.3
2023-02-04T11:41:17.471Z,6.5
2023-02-04T11:43:18.184Z,6.5
2023-02-04T11:45:16.076Z,6.5
2023-02-04T11:47:22.499Z,6.5
2023-02-04T11:49:16.090Z,6.6
2023-02-04T11:51:19.103Z,6.6
2023-02-04T11:53:19.382Z,6.6
2023-02-04T11:55:16.079Z,6.6
2023-02-04T11:57:21.465Z,6.5
2023-02-04T11:59:16.111Z,6.6
2023-02-04T12:01:16.082Z,6.6
2023-02-04T12:03:16.107Z,6.6
2023-02-04T12:05:16.120Z,6.6
2023-02-04T12:07:16.077Z,6.6
2023-02-04T12:09:16.101Z,6.6
2023-02-04T12:11:16.079Z,6.8
2023-02-04T12:13:16.074Z,6.9
2023-02-04T12:15:16.191Z,6.9
2023-02-04T12:17:16.072Z,6.7
2023-02-04T12:19:16.136Z,6.7
2023-02-04T12:21:22.195Z,6.7
2023-02-04T12:23:18.131Z,6.7
2023-02-04T12:25:20.906Z,6.6
2023-02-04T12:27:16.099Z,6
2023-02-04T12:29:16.157Z,6
2023-02-04T12:31:16.321Z,6.4
2023-02-04T12:33:19.479Z,6.8
2023-02-04T12:35:19.488Z,6.8
2023-02-04T12:37:18.158Z,6.9
2023-02-04T12:39:17.142Z,6.9
2023-02-04T12:41:16.081Z,6.9
2023-02-04T12:43:16.091Z,6.9
2023-02-04T12:45:16.150Z,6.5
2023-02-04T12:47:16.081Z,5.8
2023-02-04T12:49:19.836Z,5.6
2023-02-04T12:51:16.117Z,5.5
2023-02-04T12:53:20.735Z,5.4
2023-02-04T12:55:16.140Z,5.7
2023-02-04T12:57:16.083Z,5.5
2023-02-04T12:59:21.336Z,5.7
2023-02-04T13:01:16.186Z,6.1
2023-02-04T13:03:16.107Z,6
2023-02-04T13:05:16.144Z,6.5
2023-02-04T13:07:21.906Z,6.7
2023-02-04T13:09:22.576Z,6.8
2023-02-04T13:11:16.094Z,6.8
2023-02-04T13:13:16.107Z,6.9
2023-02-04T13:15:16.116Z,6.9
2023-02-04T13:17:19.207Z,6.9
2023-02-04T13:19:18.257Z,7
2023-02-04T13:21:16.136Z,6.8
2023-02-04T13:23:16.120Z,6.9
2023-02-04T13:25:21.507Z,6.8
2023-02-04T13:27:16.118Z,6.8
2023-02-04T13:29:16.088Z,6.8
2023-02-04T13:31:21.329Z,6.6
2023-02-04T13:33:16.145Z,6.8
2023-02-04T13:35:16.099Z,5.7
2023-02-04T13:37:16.097Z,5.4
2023-02-04T13:39:16.098Z,4.9
2023-02-04T13:41:20.967Z,4.9
2023-02-04T13:43:16.103Z,4.8
2023-02-04T13:45:21.876Z,4.7
2023-02-04T13:47:21.668Z,4.6
2023-02-04T13:49:16.119Z,4.5
2023-02-04T13:51:22.151Z,4.5
2023-02-04T13:53:20.095Z,4.7
2023-02-04T13:55:16.111Z,4.9
2023-02-04T13:57:16.114Z,5.2
2023-02-04T13:59:16.151Z,5.5
2023-02-04T14:01:16.138Z,6.7
2023-02-04T14:03:16.111Z,6.7
2023-02-04T14:05:22.020Z,6.9
2023-02-04T14:07:19.247Z,6.8
2023-02-04T14:09:17.892Z,6.9
2023-02-04T14:11:16.535Z,6.5
2023-02-04T14:13:21.092Z,5.8
2023-02-04T14:15:21.844Z,5.8
2023-02-04T14:17:20.662Z,5.6
2023-02-04T14:19:26.265Z,5.7
2023-02-04T14:21:25.446Z,5.7
2023-02-04T14:23:28.048Z,5.4
2023-02-04T14:25:30.896Z,5.3
2023-02-04T14:27:27.650Z,4.9
2023-02-04T14:29:24.199Z,4.8
2023-02-04T14:31:24.162Z,4.9
2023-02-04T14:33:24.204Z,4.8
2023-02-04T14:35:28.285Z,4.6
2023-02-04T14:37:24.220Z,4.9
2023-02-04T14:39:26.355Z,5.1
2023-02-04T14:41:28.615Z,5
2023-02-04T14:43:29.230Z,4.9
2023-02-04T14:45:27.567Z,4.9
2023-02-04T14:47:29.301Z,4.6
2023-02-04T14:49:30.902Z,4.4
2023-02-04T14:51:24.306Z,4.1
2023-02-04T14:53:28.958Z,4.1
2023-02-04T14:55:24.222Z,4.1
2023-02-04T14:57:25.422Z,4
2023-02-04T14:59:28.937Z,3.9
2023-02-04T15:01:24.317Z,3.6
2023-02-04T15:03:24.106Z,3.7
2023-02-04T15:05:28.309Z,3.6
2023-02-04T15:07:27.672Z,3.4
2023-02-04T15:11:24.219Z,3.3
2023-02-04T15:13:29.562Z,3.4
2023-02-04T15:15:24.108Z,3.3
2023-02-04T15:17:30.451Z,3.3
2023-02-04T15:19:24.135Z,3.3
2023-02-04T15:21:24.356Z,3.3
2023-02-04T15:23:29.380Z,3.2
2023-02-04T15:25:24.283Z,3.1
2023-02-04T15:27:24.247Z,3.1
2023-02-04T15:29:25.928Z,2.9
2023-02-04T15:31:27.024Z,2.8
2023-02-04T15:33:24.230Z,2.8
2023-02-04T15:35:26.625Z,2.7
2023-02-04T15:37:24.248Z,2.7
2023-02-04T15:41:26.315Z,2.8
2023-02-04T15:43:27.867Z,2.8
2023-02-04T15:45:26.758Z,2.8
2023-02-04T15:47:27.757Z,2.8
2023-02-04T15:49:27.444Z,2.7
2023-02-04T15:51:24.148Z,2.7
2023-02-04T15:55:30.832Z,2.6
2023-02-04T15:57:27.733Z,2.6
2023-02-04T15:59:27.517Z,2.4
2023-02-04T16:01:24.181Z,2.4
2023-02-04T16:03:24.392Z,2.3
2023-02-04T16:05:28.337Z,2.3
2023-02-04T16:07:26.902Z,2.2
2023-02-04T16:09:26.380Z,2.2
2023-02-04T16:11:26.786Z,2.2
2023-02-04T16:13:27.766Z,2.1
2023-02-04T16:15:25.976Z,2.1
2023-02-04T16:17:24.272Z,2
2023-02-04T16:19:27.430Z,1.7
2023-02-04T16:21:24.276Z,1.7
2023-02-04T16:23:27.700Z,1.7
2023-02-04T16:25:24.265Z,1.6
2023-02-04T16:27:26.339Z,1.7
2023-02-04T16:29:24.249Z,1.6
2023-02-04T16:31:27.404Z,1.6
2023-02-04T16:33:24.339Z,1.4
2023-02-04T16:35:27.901Z,1.4
2023-02-04T16:37:25.022Z,1.3
2023-02-04T16:39:27.776Z,1.4
2023-02-04T16:41:29.350Z,1.4
2023-02-04T16:43:24.297Z,1.4
2023-02-04T16:45:24.360Z,1.3
2023-02-04T16:47:25.954Z,1.4
2023-02-04T16:49:29.835Z,1.1
2023-02-04T16:51:25.908Z,1
2023-02-04T16:53:25.984Z,1
2023-02-04T16:55:24.222Z,0.9
2023-02-04T16:57:27.672Z,1
2023-02-04T16:59:24.287Z,1
2023-02-04T17:01:24.420Z,0.9
2023-02-04T17:03:24.312Z,0.9
2023-02-04T17:05:24.334Z,0.8
2023-02-04T17:07:24.332Z,0.7
2023-02-04T17:09:24.297Z,0.7
2023-02-04T17:11:24.141Z,0.7
2023-02-04T17:13:24.271Z,0.8
2023-02-04T17:15:24.279Z,0.7
2023-02-04T17:17:30.446Z,0.6
2023-02-04T17:19:24.345Z,0.6
2023-02-04T17:21:27.672Z,0.5
2023-02-04T17:23:24.274Z,0.5
2023-02-04T17:25:26.454Z,0.6
2023-02-04T17:27:30.758Z,0.4
2023-02-04T17:29:24.283Z,0.5
2023-02-04T17:31:24.176Z,0.4
2023-02-04T17:33:28.330Z,0.4
2023-02-04T17:35:24.284Z,0.3
2023-02-04T17:37:26.276Z,0.4
2023-02-04T17:39:24.291Z,0.4
2023-02-04T17:41:30.966Z,0.4
2023-02-04T17:43:30.976Z,0.2
2023-02-04T17:45:24.173Z,0.2
2023-02-04T17:47:24.156Z,0.1
2023-02-04T17:51:24.164Z,0.1
2023-02-04T17:53:24.160Z,0
2023-02-04T17:55:29.217Z,0
2023-02-04T17:57:24.170Z,0.2
2023-02-04T17:59:29.860Z,0.2
2023-02-04T18:01:24.231Z,0.2
2023-02-04T18:03:24.189Z,0.1
2023-02-04T18:05:30.993Z,-0.2
2023-02-04T18:07:28.149Z,-0.1
2023-02-04T18:09:24.187Z,-0.2
2023-02-04T18:11:26.395Z,-0.2
2023-02-04T18:13:24.448Z,-0.4
2023-02-04T18:15:24.138Z,-0.4
2023-02-04T18:17:24.129Z,-0.5
2023-02-04T18:19:24.268Z,-0.6
2023-02-04T18:21:24.154Z,-0.4
2023-02-04T18:23:24.136Z,-0.4
2023-02-04T18:25:24.151Z,-0.4
2023-02-04T18:27:26.135Z,-0.3
2023-02-04T18:31:24.172Z,-0.3
2023-02-04T18:33:24.142Z,-0.5
2023-02-04T18:35:27.115Z,-0.3
2023-02-04T18:37:30.513Z,-0.4
2023-02-04T18:39:48.319Z,-0.3
2023-02-04T18:43:41.809Z,-0.5
2023-02-04T18:49:37.829Z,-0.6
2023-02-04T18:51:38.477Z,-0.5
2023-02-04T18:55:33.119Z,-0.7
2023-02-04T18:57:33.168Z,-0.6
2023-02-04T18:59:38.363Z,-0.7
2023-02-04T19:01:37.417Z,-0.7
2023-02-04T19:03:33.116Z,-0.6
2023-02-04T19:05:33.132Z,-0.7
2023-02-04T19:07:35.607Z,-0.7
2023-02-04T19:09:37.209Z,-0.7
2023-02-04T19:11:37.208Z,-0.8
2023-02-04T19:13:33.115Z,-0.8
2023-02-04T19:15:36.506Z,-1
2023-02-04T19:17:33.146Z,-1
2023-02-04T19:19:38.419Z,-1
2023-02-04T19:21:33.129Z,-1
2023-02-04T19:23:38.083Z,-1.2
2023-02-04T19:25:35.051Z,-1.2
2023-02-04T19:27:34.265Z,-1.3
2023-02-04T19:29:33.161Z,-1.2
2023-02-04T19:31:36.782Z,-1.1
2023-02-04T19:33:35.799Z,-1.1
2023-02-04T19:35:33.376Z,-1.1
2023-02-04T19:37:36.138Z,-1.2
2023-02-04T19:39:33.111Z,-1.2
2023-02-04T19:41:35.574Z,-1.2
2023-02-04T19:43:33.133Z,-1.2
2023-02-04T19:45:38.894Z,-1.2
2023-02-04T19:47:35.175Z,-1.2
2023-02-04T19:49:33.431Z,-1.2
2023-02-04T19:51:33.007Z,-1.1
2023-02-04T19:53:32.989Z,-1.1
2023-02-04T19:55:39.282Z,-1.1
2023-02-04T19:57:33.747Z,-1
2023-02-04T19:59:37.926Z,-1
2023-02-04T20:01:33.204Z,-1.2
2023-02-04T20:03:33.148Z,-1.3
2023-02-04T20:05:35.568Z,-1.3
2023-02-04T20:07:36.203Z,-1.5
2023-02-04T20:09:33.137Z,-1.5
2023-02-04T20:11:37.549Z,-1.3
2023-02-04T20:13:33.103Z,-1
2023-02-04T20:15:36.731Z,-0.9
2023-02-04T20:17:33.010Z,-0.8
2023-02-04T20:19:33.320Z,-0.9
2023-02-04T20:21:35.166Z,-1.1
2023-02-04T20:23:36.508Z,-1.2
2023-02-04T20:25:33.494Z,-1.2
2023-02-04T20:27:33.174Z,-1.2
2023-02-04T20:29:33.209Z,-1.3
2023-02-04T20:31:33.190Z,-1.3
2023-02-04T20:33:38.405Z,-1.3
2023-02-04T20:35:33.382Z,-1.2
2023-02-04T20:37:34.817Z,-1.1
2023-02-04T20:39:33.071Z,-1.2
2023-02-04T20:41:37.406Z,-1
2023-02-04T20:43:34.858Z,-0.9
2023-02-04T20:45:39.188Z,-1
2023-02-04T20:47:35.319Z,-1
2023-02-04T20:49:36.988Z,-1
2023-02-04T20:51:33.105Z,-0.9
2023-02-04T20:53:35.304Z,-1
2023-02-04T20:55:33.430Z,-1
2023-02-04T20:57:33.019Z,-1
2023-02-04T20:59:38.871Z,-1
2023-02-04T21:01:35.242Z,-1
2023-02-04T21:03:33.136Z,-1.1
2023-02-04T21:05:33.429Z,-1.2
2023-02-04T21:07:33.099Z,-1.3
2023-02-04T21:09:35.215Z,-1.1
2023-02-04T21:11:38.110Z,-1.2
2023-02-04T21:13:38.927Z,-1.3
2023-02-04T21:15:33.362Z,-1.1
2023-02-04T21:17:33.120Z,-1.1
2023-02-04T21:19:35.566Z,-1
2023-02-04T21:21:39.150Z,-1
2023-02-04T21:23:35.207Z,-1
2023-02-04T21:25:33.428Z,-0.8
2023-02-04T21:27:36.276Z,-0.9
2023-02-04T21:33:33.099Z,-0.6
2023-02-04T21:35:38.965Z,-0.5
2023-02-04T21:37:37.822Z,-0.6
2023-02-04T21:39:36.984Z,-0.7
2023-02-04T21:41:33.117Z,-0.7
2023-02-04T21:43:33.136Z,-0.8
2023-02-04T21:45:36.936Z,-0.8
2023-02-04T21:47:38.801Z,-0.8
2023-02-04T21:49:33.171Z,-0.9
2023-02-04T21:51:38.590Z,-0.8
2023-02-04T21:53:33.142Z,-0.9
2023-02-04T21:55:33.483Z,-0.9
2023-02-04T21:57:35.516Z,-0.9
2023-02-04T21:59:33.125Z,-0.9
2023-02-04T22:01:33.333Z,-1
2023-02-04T22:03:33.154Z,-0.9
2023-02-04T22:05:33.421Z,-1
2023-02-04T22:07:35.179Z,-1
2023-02-04T22:09:32.990Z,-1
2023-02-04T22:11:36.684Z,-0.9
2023-02-04T22:13:37.871Z,-0.9
2023-02-04T22:15:37.521Z,-0.9
2023-02-04T22:17:33.118Z,-0.8
2023-02-04T22:19:33.115Z,-0.8
2023-02-04T22:21:33.125Z,-1
2023-02-04T22:23:33.118Z,-0.9
2023-02-04T22:25:36.857Z,-0.8
2023-02-04T22:27:35.204Z,-0.8
2023-02-04T22:29:38.753Z,-0.7
2023-02-04T22:31:36.499Z,-0.8
2023-02-04T22:33:37.387Z,-0.9
2023-02-04T22:35:33.360Z,-0.9
2023-02-04T22:37:33.371Z,-0.8
2023-02-04T22:39:33.127Z,-0.9
2023-02-04T22:41:33.159Z,-0.8
2023-02-04T22:43:35.797Z,-0.9
2023-02-04T22:45:33.207Z,-0.9
2023-02-04T22:47:35.270Z,-0.9
2023-02-04T22:49:32.978Z,-0.9
2023-02-04T22:51:33.017Z,-0.9
2023-02-04T22:53:32.987Z,-0.9
2023-02-04T22:55:33.304Z,-1
2023-02-04T22:57:33.036Z,-0.9
2023-02-04T22:59:36.628Z,-1
2023-02-04T23:01:33.145Z,-0.9
2023-02-04T23:03:37.238Z,-1
2023-02-04T23:05:33.397Z,-0.9
2023-02-04T23:07:37.678Z,-0.9
2023-02-04T23:09:33.004Z,-0.9
2023-02-04T23:11:32.978Z,-1
2023-02-04T23:13:33.026Z,-1.1
2023-02-04T23:15:39.627Z,-1.1
2023-02-04T23:17:38.818Z,-1.3
2023-02-04T23:19:38.852Z,-1.3
2023-02-04T23:21:33.009Z,-1.2
2023-02-04T23:23:32.973Z,-1.1
2023-02-04T23:25:33.236Z,-1.2
2023-02-04T23:27:33.001Z,-1.1
2023-02-04T23:29:33.892Z,-1.1
2023-02-04T23:31:39.984Z,-1.1
2023-02-04T23:33:32.970Z,-1.4
2023-02-04T23:35:36.639Z,-1.3
2023-02-04T23:37:33.165Z,-1.4
2023-02-04T23:39:38.364Z,-1.3
2023-02-04T23:41:36.655Z,-1.4
2023-02-04T23:43:33.009Z,-1.3
2023-02-04T23:45:35.839Z,-1.6
2023-02-04T23:47:36.530Z,-1.7
2023-02-04T23:49:32.981Z,-1.8
2023-02-04T23:51:39.892Z,-1.9
2023-02-04T23:53:33.019Z,-2
2023-02-04T23:55:33.304Z,-2
2023-02-04T23:57:36.861Z,-2.2
2023-02-04T23:59:38.741Z,-2.3
